createdAt,value
2023-02-06T00:01:31.383Z,7.75
2023-02-06T00:03:59.455Z,7.68
2023-02-06T00:06:26.787Z,9.85
2023-02-06T00:08:57.899Z,6.90
2023-02-06T00:11:26.133Z,7.25
2023-02-06T00:13:53.881Z,7.50
2023-02-06T00:16:22.350Z,7.93
2023-02-06T00:18:50.102Z,7.35
2023-02-06T00:21:20.381Z,9.15
2023-02-06T00:23:47.728Z,9.25
2023-02-06T00:26:16.407Z,8.27
2023-02-06T00:28:44.571Z,8.48
2023-02-06T00:31:11.965Z,8.20
2023-02-06T00:33:40.119Z,7.50
2023-02-06T00:36:08.144Z,9.38
2023-02-06T00:38:37.094Z,8.18
2023-02-06T00:41:04.403Z,9.73
2023-02-06T00:43:35.630Z,9.27
2023-02-06T00:46:03.241Z,8.70
2023-02-06T00:48:30.570Z,9.32
2023-02-06T00:50:58.071Z,10.43
2023-02-06T00:53:25.371Z,9.43
2023-02-06T00:55:52.742Z,9.30
2023-02-06T00:58:20.164Z,9.98
2023-02-06T01:00:49.085Z,9.98
2023-02-06T01:03:16.427Z,10.68
2023-02-06T01:05:43.732Z,9.48
2023-02-06T01:08:11.141Z,9.85
2023-02-06T01:10:41.047Z,10.50
2023-02-06T01:13:11.591Z,9.63
2023-02-06T01:15:38.923Z,10.75
2023-02-06T01:18:09.506Z,11.18
2023-02-06T01:20:37.444Z,9.88
2023-02-06T01:23:04.759Z,10.07
2023-02-06T01:25:32.203Z,9.43
2023-02-06T01:28:00.200Z,9.23
2023-02-06T01:30:27.680Z,10.57
2023-02-06T01:32:55.072Z,9.10
2023-02-06T01:35:24.176Z,8.65
2023-02-06T01:37:52.201Z,9.18
2023-02-06T01:40:19.646Z,8.90
2023-02-06T01:42:46.941Z,8.70
2023-02-06T01:45:41.865Z,9.77
2023-02-06T01:48:10.961Z,9.15
2023-02-06T01:50:40.680Z,8.95
2023-02-06T01:53:08.502Z,8.43
2023-02-06T01:55:36.917Z,8.45
2023-02-06T01:58:05.378Z,9.00
2023-02-06T02:00:33.049Z,8.60
2023-02-06T02:03:00.495Z,9.43
2023-02-06T02:05:27.778Z,9.18
2023-02-06T02:08:01.084Z,9.32
2023-02-06T02:10:29.578Z,10.70
2023-02-06T02:12:56.937Z,7.47
2023-02-06T02:15:25.782Z,7.80
2023-02-06T02:17:57.496Z,8.88
2023-02-06T02:20:33.988Z,9.50
2023-02-06T02:23:16.153Z,10.25
2023-02-06T02:26:02.293Z,9.75
2023-02-06T02:28:47.532Z,10.38
2023-02-06T02:31:23.078Z,9.70
2023-02-06T02:33:58.967Z,9.60
2023-02-06T02:36:31.308Z,11.02
2023-02-06T02:39:04.244Z,10.20
2023-02-06T02:41:38.119Z,9.88
2023-02-06T02:44:08.578Z,9.65
2023-02-06T02:46:36.649Z,9.95
2023-02-06T02:49:05.195Z,10.23
2023-02-06T02:51:34.040Z,10.60
2023-02-06T02:54:02.990Z,11.07
2023-02-06T02:56:33.322Z,10.10
2023-02-06T02:59:04.047Z,10.82
2023-02-06T03:01:33.981Z,11.05
2023-02-06T03:04:04.150Z,11.05
2023-02-06T03:06:51.761Z,11.43
2023-02-06T03:09:24.575Z,10.98
2023-02-06T03:11:56.131Z,10.43
2023-02-06T03:14:30.054Z,11.55
2023-02-06T03:16:59.256Z,11.35
2023-02-06T03:19:30.231Z,11.80
2023-02-06T03:21:58.960Z,12.05
2023-02-06T03:24:27.304Z,13.68
2023-02-06T03:26:57.516Z,11.10
2023-02-06T03:29:25.404Z,13.27
2023-02-06T03:31:54.730Z,12.82
2023-02-06T03:34:24.338Z,14.25
2023-02-06T03:36:53.196Z,15.38
2023-02-06T03:39:25.202Z,13.70
2023-02-06T03:41:56.747Z,12.32
2023-02-06T03:44:25.788Z,13.55
2023-02-06T03:46:53.892Z,14.85
2023-02-06T03:49:23.250Z,13.55
2023-02-06T03:51:52.420Z,12.63
2023-02-06T03:54:21.051Z,13.02
2023-02-06T03:56:53.656Z,11.68
2023-02-06T03:59:21.345Z,12.48
2023-02-06T04:01:50.612Z,13.55
2023-02-06T04:04:18.156Z,12.93
2023-02-06T04:06:45.824Z,10.63
2023-02-06T04:09:13.150Z,12.07
2023-02-06T04:11:42.615Z,10.88
2023-02-06T04:14:11.287Z,11.77
2023-02-06T04:16:39.394Z,13.40
2023-02-06T04:19:10.193Z,12.13
2023-02-06T04:21:37.468Z,11.52
2023-02-06T04:24:04.985Z,13.70
2023-02-06T04:26:32.280Z,11.98
2023-02-06T04:28:59.545Z,11.85
2023-02-06T04:31:28.717Z,11.00
2023-02-06T04:33:56.169Z,11.52
2023-02-06T04:36:23.805Z,14.60
2023-02-06T04:38:51.986Z,12.80
2023-02-06T04:41:19.730Z,11.35
2023-02-06T04:43:47.341Z,13.38
2023-02-06T04:46:14.916Z,12.18
2023-02-06T04:48:43.702Z,13.38
2023-02-06T04:51:11.119Z,11.15
2023-02-06T04:53:38.471Z,12.23
2023-02-06T04:56:06.562Z,12.30
2023-02-06T04:58:34.189Z,13.38
2023-02-06T05:01:01.927Z,13.25
2023-02-06T05:03:29.573Z,12.18
2023-02-06T05:05:59.683Z,14.80
2023-02-06T05:08:27.111Z,13.55
2023-02-06T05:10:55.443Z,14.60
2023-02-06T05:13:23.535Z,13.35
2023-02-06T05:15:51.110Z,13.68
2023-02-06T05:18:18.489Z,14.63
2023-02-06T05:20:46.004Z,12.93
2023-02-06T05:23:14.783Z,12.60
2023-02-06T05:25:42.410Z,15.63
2023-02-06T05:28:09.976Z,15.95
2023-02-06T05:30:37.804Z,15.45
2023-02-06T05:33:05.217Z,15.45
2023-02-06T05:35:35.109Z,14.63
2023-02-06T05:38:02.620Z,14.77
2023-02-06T05:40:31.611Z,13.85
2023-02-06T05:42:58.978Z,14.40
2023-02-06T05:45:26.575Z,16.25
2023-02-06T05:47:55.243Z,15.00
2023-02-06T05:50:22.807Z,16.23
2023-02-06T05:52:50.389Z,15.98
2023-02-06T05:55:18.237Z,17.08
2023-02-06T05:57:46.973Z,20.33
2023-02-06T06:00:15.375Z,21.23
2023-02-06T06:02:42.850Z,21.98
2023-02-06T06:05:10.182Z,20.60
2023-02-06T06:07:37.781Z,20.58
2023-02-06T06:10:06.813Z,20.15
2023-02-06T06:12:34.543Z,19.40
2023-02-06T06:15:05.786Z,21.65
2023-02-06T06:17:36.708Z,22.38
2023-02-06T06:20:04.442Z,22.70
2023-02-06T06:22:32.083Z,24.05
2023-02-06T06:24:59.417Z,23.05
2023-02-06T06:27:26.826Z,22.67
2023-02-06T06:29:54.249Z,23.60
2023-02-06T06:32:23.245Z,26.42
2023-02-06T06:34:50.587Z,24.55
2023-02-06T06:37:18.137Z,23.15
2023-02-06T06:39:45.455Z,22.58
2023-02-06T06:42:12.786Z,23.02
2023-02-06T06:44:40.341Z,25.38
2023-02-06T06:47:07.890Z,24.95
2023-02-06T06:49:36.566Z,25.58
2023-02-06T06:52:07.004Z,26.08
2023-02-06T06:54:36.305Z,27.20
2023-02-06T06:57:04.322Z,25.98
2023-02-06T06:59:31.598Z,27.85
2023-02-06T07:01:58.960Z,28.08
2023-02-06T07:04:29.476Z,27.65
2023-02-06T07:06:58.340Z,27.17
2023-02-06T07:09:28.122Z,28.45
2023-02-06T07:11:55.453Z,27.23
2023-02-06T07:14:22.777Z,28.90
2023-02-06T07:16:50.243Z,29.98
2023-02-06T07:19:17.859Z,30.75
2023-02-06T07:21:45.215Z,26.58
2023-02-06T07:24:15.974Z,29.17
2023-02-06T07:26:43.294Z,28.17
2023-02-06T07:29:13.050Z,26.85
2023-02-06T07:31:40.735Z,29.13
2023-02-06T07:34:08.123Z,28.38
2023-02-06T07:36:35.453Z,25.95
2023-02-06T07:39:03.093Z,25.92
2023-02-06T07:41:31.882Z,29.30
2023-02-06T07:43:59.443Z,25.23
2023-02-06T07:46:26.743Z,28.90
2023-02-06T07:48:54.084Z,25.73
2023-02-06T07:51:21.809Z,25.75
2023-02-06T07:53:49.233Z,25.92
2023-02-06T07:56:17.654Z,28.10
2023-02-06T07:58:47.168Z,27.13
2023-02-06T08:01:14.591Z,27.27
2023-02-06T08:03:42.046Z,28.80
2023-02-06T08:06:10.086Z,28.15
2023-02-06T08:08:37.519Z,26.08
2023-02-06T08:11:05.618Z,26.27
2023-02-06T08:13:33.691Z,26.13
2023-02-06T08:16:05.590Z,25.77
2023-02-06T08:18:33.131Z,25.00
2023-02-06T08:21:04.306Z,24.20
2023-02-06T08:23:31.946Z,29.23
2023-02-06T08:26:03.249Z,27.05
2023-02-06T08:28:30.969Z,27.48
2023-02-06T08:30:58.662Z,25.65
2023-02-06T08:33:27.422Z,26.77
2023-02-06T08:35:55.279Z,27.80
2023-02-06T08:38:24.951Z,26.17
2023-02-06T08:40:52.941Z,27.83
2023-02-06T08:43:20.341Z,26.45
2023-02-06T08:45:48.893Z,25.45
2023-02-06T08:48:16.334Z,25.23
2023-02-06T08:50:48.143Z,24.23
2023-02-06T08:53:15.507Z,21.67
2023-02-06T08:55:42.904Z,23.35
2023-02-06T08:58:10.237Z,21.98
2023-02-06T09:00:37.591Z,22.98
2023-02-06T09:03:05.526Z,23.42
2023-02-06T09:05:33.200Z,19.67
2023-02-06T09:08:01.838Z,22.70
2023-02-06T09:10:29.190Z,23.33
2023-02-06T09:12:57.506Z,23.90
2023-02-06T09:15:28.539Z,24.67
2023-02-06T09:17:55.894Z,24.35
2023-02-06T09:20:26.406Z,23.10
2023-02-06T09:22:53.711Z,22.23
2023-02-06T09:25:22.379Z,23.27
2023-02-06T09:27:49.701Z,22.08
2023-02-06T09:30:17.030Z,19.52
2023-02-06T09:32:44.496Z,18.40
2023-02-06T09:35:12.013Z,17.92
2023-02-06T09:37:39.347Z,19.10
2023-02-06T09:40:07.129Z,19.02
2023-02-06T09:42:37.201Z,19.67
2023-02-06T09:45:06.281Z,19.88
2023-02-06T09:47:35.249Z,19.42
2023-02-06T09:50:05.359Z,20.20
2023-02-06T09:52:40.338Z,20.08
2023-02-06T09:55:10.834Z,20.13
2023-02-06T09:57:42.525Z,17.35
2023-02-06T10:00:13.938Z,17.30
2023-02-06T10:03:02.007Z,18.80
2023-02-06T10:05:35.267Z,18.10
2023-02-06T10:08:11.148Z,19.38
2023-02-06T10:10:40.384Z,18.83
2023-02-06T10:13:13.318Z,18.83
2023-02-06T10:15:42.699Z,18.88
2023-02-06T10:18:12.325Z,19.05
2023-02-06T10:20:41.545Z,18.73
2023-02-06T10:23:12.855Z,18.50
2023-02-06T10:25:42.881Z,17.05
2023-02-06T10:28:20.785Z,17.15
2023-02-06T10:30:52.765Z,16.63
2023-02-06T10:33:26.057Z,14.98
2023-02-06T10:35:57.434Z,16.48
2023-02-06T10:38:40.955Z,16.92
2023-02-06T10:41:12.004Z,15.52
2023-02-06T10:43:44.586Z,15.02
2023-02-06T10:46:23.072Z,15.60
2023-02-06T10:48:55.929Z,14.27
2023-02-06T10:51:27.470Z,15.32
2023-02-06T10:53:58.232Z,15.38
2023-02-06T10:56:28.288Z,13.10
2023-02-06T10:58:57.887Z,12.75
2023-02-06T11:01:27.075Z,14.85
2023-02-06T11:03:59.104Z,16.60
2023-02-06T11:06:27.028Z,16.63
2023-02-06T11:08:54.502Z,14.73
2023-02-06T11:11:23.126Z,12.90
2023-02-06T11:13:52.392Z,13.98
2023-02-06T11:16:24.119Z,14.32
2023-02-06T11:18:52.125Z,15.43
2023-02-06T11:21:34.305Z,14.85
2023-02-06T11:24:09.072Z,13.57
2023-02-06T11:29:10.309Z,14.07
2023-02-06T11:31:40.963Z,12.85
2023-02-06T11:34:19.859Z,13.63
2023-02-06T11:36:52.448Z,13.57
2023-02-06T11:39:22.962Z,14.35
2023-02-06T11:41:56.983Z,13.88
2023-02-06T11:44:25.545Z,13.18
2023-02-06T11:46:54.335Z,11.68
2023-02-06T11:49:27.096Z,13.98
2023-02-06T11:51:55.209Z,13.00
2023-02-06T11:54:24.107Z,13.10
2023-02-06T11:57:03.151Z,13.77
2023-02-06T11:59:33.721Z,13.25
2023-02-06T12:02:05.545Z,12.70
2023-02-06T12:04:34.806Z,12.05
2023-02-06T12:07:03.594Z,12.13
2023-02-06T12:09:30.929Z,12.13
2023-02-06T12:12:01.219Z,13.18
2023-02-06T12:14:32.536Z,11.55
2023-02-06T12:17:01.260Z,11.88
2023-02-06T12:19:39.242Z,10.70
2023-02-06T12:22:11.784Z,11.90
2023-02-06T12:24:41.455Z,12.48
2023-02-06T12:27:14.357Z,11.98
2023-02-06T12:29:43.266Z,12.20
2023-02-06T12:32:14.959Z,12.55
2023-02-06T12:34:50.206Z,13.50
2023-02-06T12:37:21.409Z,12.93
2023-02-06T12:39:49.207Z,14.45
2023-02-06T12:42:34.188Z,13.52
2023-02-06T12:45:04.942Z,14.13
2023-02-06T12:47:35.718Z,13.15
2023-02-06T12:50:05.840Z,13.48
2023-02-06T12:52:36.696Z,13.40
2023-02-06T12:55:08.002Z,13.82
2023-02-06T12:57:37.045Z,12.98
2023-02-06T13:00:28.550Z,13.73
2023-02-06T13:03:05.005Z,12.85
2023-02-06T13:05:35.749Z,14.18
2023-02-06T13:08:08.690Z,14.25
2023-02-06T13:10:37.164Z,14.15
2023-02-06T13:13:09.102Z,14.82
2023-02-06T13:15:38.703Z,13.07
2023-02-06T13:18:21.370Z,10.77
2023-02-06T13:21:04.127Z,10.45
2023-02-06T13:23:38.051Z,10.38
2023-02-06T13:26:05.335Z,10.10
2023-02-06T13:29:03.125Z,10.15
2023-02-06T13:31:31.998Z,11.18
2023-02-06T13:34:01.447Z,11.00
2023-02-06T13:36:42.601Z,12.63
2023-02-06T13:39:24.975Z,12.30
2023-02-06T13:41:52.636Z,11.00
2023-02-06T13:44:22.608Z,12.48
2023-02-06T13:47:06.142Z,13.07
2023-02-06T13:49:51.979Z,11.75
2023-02-06T13:52:20.973Z,12.25
2023-02-06T13:54:59.172Z,12.32
2023-02-06T13:57:32.374Z,12.90
2023-02-06T14:00:02.049Z,14.13
2023-02-06T14:02:32.400Z,14.35
2023-02-06T14:05:00.008Z,14.20
2023-02-06T14:07:45.039Z,14.27
2023-02-06T14:10:21.134Z,14.07
2023-02-06T14:12:53.656Z,15.07
2023-02-06T14:15:28.471Z,14.65
2023-02-06T14:20:29.955Z,15.00
2023-02-06T14:23:05.692Z,15.05
2023-02-06T14:25:41.384Z,14.48
2023-02-06T14:28:12.249Z,15.52
2023-02-06T14:30:43.890Z,15.68
2023-02-06T14:33:17.872Z,14.77
2023-02-06T14:35:52.481Z,14.73
2023-02-06T14:38:37.659Z,14.27
2023-02-06T14:43:36.440Z,15.27
2023-02-06T14:46:08.070Z,14.65
2023-02-06T14:48:39.792Z,14.20
2023-02-06T14:51:07.849Z,11.82
2023-02-06T14:53:40.187Z,11.45
2023-02-06T14:56:09.112Z,12.15
2023-02-06T14:58:38.066Z,13.18
2023-02-06T15:01:19.958Z,11.65
2023-02-06T15:03:48.206Z,12.00
2023-02-06T15:06:17.468Z,11.13
2023-02-06T15:08:48.643Z,11.07
2023-02-06T15:11:19.317Z,11.65
2023-02-06T15:13:51.807Z,12.48
2023-02-06T15:16:19.390Z,11.85
2023-02-06T15:18:47.025Z,10.65
2023-02-06T15:21:15.813Z,12.30
2023-02-06T15:23:55.642Z,11.77
2023-02-06T15:26:27.489Z,11.20
2023-02-06T15:28:58.973Z,12.15
2023-02-06T15:31:26.597Z,11.75
2023-02-06T15:33:55.026Z,11.55
2023-02-06T15:36:23.896Z,11.65
2023-02-06T15:38:51.571Z,11.50
2023-02-06T15:41:19.354Z,11.38
2023-02-06T15:43:47.919Z,11.70
2023-02-06T15:46:16.743Z,12.90
2023-02-06T15:48:50.123Z,12.02
2023-02-06T15:51:22.751Z,12.65
2023-02-06T15:53:51.208Z,12.70
2023-02-06T15:56:21.546Z,13.48
2023-02-06T15:58:49.294Z,13.40
2023-02-06T16:01:19.901Z,13.35
2023-02-06T16:03:49.556Z,14.02
2023-02-06T16:06:17.689Z,14.85
2023-02-06T16:08:50.134Z,15.05
2023-02-06T16:11:31.631Z,14.68
2023-02-06T16:13:59.479Z,15.45
2023-02-06T16:16:29.029Z,15.70
2023-02-06T16:18:58.455Z,16.05
2023-02-06T16:21:28.040Z,15.50
2023-02-06T16:24:03.786Z,14.98
2023-02-06T16:26:31.706Z,14.55
2023-02-06T16:29:15.116Z,15.57
2023-02-06T16:31:45.134Z,15.68
2023-02-06T16:34:20.428Z,15.65
2023-02-06T16:36:48.593Z,15.18
2023-02-06T16:39:16.154Z,14.98
2023-02-06T16:41:43.740Z,15.63
2023-02-06T16:44:12.664Z,14.70
2023-02-06T16:46:40.002Z,15.00
2023-02-06T16:49:12.509Z,15.82
2023-02-06T16:51:40.946Z,14.75
2023-02-06T16:54:09.713Z,15.20
2023-02-06T16:56:39.015Z,14.43
2023-02-06T16:59:07.073Z,16.45
2023-02-06T17:01:36.056Z,16.98
2023-02-06T17:04:04.092Z,18.80
2023-02-06T17:06:34.286Z,18.10
2023-02-06T17:11:45.749Z,19.55
2023-02-06T17:14:13.034Z,20.27
2023-02-06T17:16:40.391Z,23.13
2023-02-06T17:19:07.755Z,24.35
2023-02-06T17:21:36.469Z,23.83
2023-02-06T17:24:03.860Z,25.33
2023-02-06T17:26:31.270Z,25.48
2023-02-06T17:28:58.621Z,24.05
2023-02-06T17:31:26.297Z,24.33
2023-02-06T17:33:53.714Z,24.30
2023-02-06T17:36:29.087Z,23.88
2023-02-06T17:39:00.188Z,22.00
2023-02-06T17:41:27.739Z,22.98
2023-02-06T17:43:55.376Z,21.00
2023-02-06T17:46:23.454Z,22.23
2023-02-06T17:48:51.099Z,21.10
2023-02-06T17:51:18.427Z,20.98
2023-02-06T17:53:45.742Z,22.85
2023-02-06T17:56:14.814Z,23.80
2023-02-06T17:58:42.896Z,25.27
2023-02-06T18:01:11.416Z,25.00
2023-02-06T18:03:39.108Z,25.35
2023-02-06T18:06:06.918Z,26.15
2023-02-06T18:08:34.526Z,26.02
2023-02-06T18:11:02.977Z,25.52
2023-02-06T18:13:31.660Z,27.42
2023-02-06T18:15:59.141Z,27.13
2023-02-06T18:18:27.008Z,29.70
2023-02-06T18:20:54.347Z,28.38
2023-02-06T18:23:21.684Z,31.45
2023-02-06T18:25:49.391Z,31.38
2023-02-06T18:28:17.891Z,31.63
2023-02-06T18:30:46.853Z,32.80
2023-02-06T18:33:14.202Z,32.00
2023-02-06T18:35:44.153Z,267.50
2023-02-06T18:38:12.051Z,186.55
2023-02-06T18:40:39.896Z,55.08
2023-02-06T18:43:06.730Z,35.08
2023-02-06T18:45:35.462Z,32.95
2023-02-06T18:48:05.118Z,28.83
2023-02-06T18:50:32.546Z,24.83
2023-02-06T18:53:00.160Z,22.85
2023-02-06T18:55:27.619Z,20.30
2023-02-06T18:57:55.453Z,20.30
2023-02-06T19:00:23.625Z,24.33
2023-02-06T19:02:51.436Z,19.02
2023-02-06T19:05:20.471Z,19.58
2023-02-06T19:07:49.477Z,29.05
2023-02-06T19:10:17.440Z,19.67
2023-02-06T19:12:44.795Z,20.23
2023-02-06T19:15:12.988Z,20.25
2023-02-06T19:17:40.361Z,19.63
2023-02-06T19:20:08.496Z,18.90
2023-02-06T19:22:37.597Z,19.77
2023-02-06T19:25:06.885Z,19.90
2023-02-06T19:27:35.544Z,19.63
2023-02-06T19:30:07.284Z,23.85
2023-02-06T19:32:34.777Z,26.33
2023-02-06T19:35:02.436Z,16.33
2023-02-06T19:37:29.912Z,16.13
2023-02-06T19:39:58.593Z,16.75
2023-02-06T19:42:26.014Z,16.65
2023-02-06T19:44:54.885Z,16.90
2023-02-06T19:47:22.678Z,17.60
2023-02-06T19:49:51.120Z,16.58
2023-02-06T19:52:18.540Z,17.08
2023-02-06T19:54:47.581Z,16.88
2023-02-06T19:57:19.111Z,19.60
2023-02-06T19:59:48.779Z,16.77
2023-02-06T20:02:16.876Z,16.48
2023-02-06T20:04:45.095Z,14.30
2023-02-06T20:07:12.463Z,13.95
2023-02-06T20:09:41.720Z,14.68
2023-02-06T20:12:09.937Z,16.00
2023-02-06T20:14:38.841Z,16.45
2023-02-06T20:17:06.400Z,18.85
2023-02-06T20:19:33.754Z,17.20
2023-02-06T20:22:01.307Z,16.63
2023-02-06T20:24:30.205Z,17.77
2023-02-06T20:26:59.007Z,16.25
2023-02-06T20:29:27.683Z,18.60
2023-02-06T20:31:57.457Z,15.93
2023-02-06T20:34:25.605Z,22.15
2023-02-06T20:36:53.236Z,19.98
2023-02-06T20:39:20.842Z,18.58
2023-02-06T20:41:49.423Z,29.10
2023-02-06T20:44:17.530Z,25.85
2023-02-06T20:46:45.126Z,20.42
2023-02-06T20:49:16.108Z,18.40
2023-02-06T20:51:43.830Z,17.80
2023-02-06T20:54:11.853Z,17.70
2023-02-06T20:56:39.499Z,17.88
2023-02-06T20:59:07.259Z,18.73
2023-02-06T21:01:35.058Z,21.80
2023-02-06T21:04:03.564Z,20.15
2023-02-06T21:06:34.821Z,20.52
2023-02-06T21:09:03.051Z,19.27
2023-02-06T21:11:31.940Z,21.50
2023-02-06T21:13:59.724Z,18.00
2023-02-06T21:16:27.495Z,18.08
2023-02-06T21:18:55.414Z,18.58
2023-02-06T21:21:22.842Z,19.02
2023-02-06T21:23:51.515Z,19.88
2023-02-06T21:26:19.189Z,17.73
2023-02-06T21:28:47.336Z,18.80
2023-02-06T21:31:16.807Z,18.42
2023-02-06T21:33:45.791Z,17.38
2023-02-06T21:36:13.501Z,17.50
2023-02-06T21:38:41.163Z,17.20
2023-02-06T21:41:11.574Z,17.45
2023-02-06T21:43:39.372Z,18.50
2023-02-06T21:46:07.113Z,16.05
2023-02-06T21:48:35.502Z,17.85
2023-02-06T21:51:08.211Z,16.38
2023-02-06T21:53:35.828Z,15.70
2023-02-06T21:56:05.546Z,17.92
2023-02-06T21:58:34.912Z,16.92
2023-02-06T22:01:08.703Z,18.02
2023-02-06T22:03:36.539Z,16.33
2023-02-06T22:06:08.473Z,16.27
2023-02-06T22:08:36.086Z,17.00
2023-02-06T22:11:03.506Z,16.05
2023-02-06T22:13:30.821Z,16.23
2023-02-06T22:15:59.550Z,15.88
2023-02-06T22:18:27.136Z,17.27
2023-02-06T22:21:03.357Z,17.60
2023-02-06T22:23:30.910Z,17.65
2023-02-06T22:25:58.252Z,16.30
2023-02-06T22:28:25.615Z,16.23
2023-02-06T22:30:52.961Z,16.20
2023-02-06T22:33:21.619Z,15.38
2023-02-06T22:35:48.911Z,15.98
2023-02-06T22:38:16.754Z,15.05
2023-02-06T22:40:44.293Z,14.43
2023-02-06T22:43:11.602Z,14.52
2023-02-06T22:45:39.111Z,15.15
2023-02-06T22:48:07.239Z,13.98
2023-02-06T22:50:37.388Z,14.98
2023-02-06T22:53:22.453Z,15.65
2023-02-06T22:56:07.378Z,14.85
2023-02-06T23:01:03.161Z,14.60
2023-02-06T23:03:30.787Z,16.58
2023-02-06T23:06:02.940Z,15.13
2023-02-06T23:08:30.437Z,14.90
2023-02-06T23:10:58.529Z,15.07
2023-02-06T23:13:27.010Z,27.35
2023-02-06T23:15:56.501Z,14.77
2023-02-06T23:18:24.530Z,15.77
2023-02-06T23:20:54.248Z,15.30
2023-02-06T23:23:22.986Z,14.70
2023-02-06T23:25:50.540Z,14.80
2023-02-06T23:28:17.943Z,14.57
2023-02-06T23:30:45.709Z,22.30
2023-02-06T23:33:13.283Z,16.73
2023-02-06T23:35:40.889Z,17.70
2023-02-06T23:38:08.347Z,16.98
2023-02-06T23:40:38.072Z,17.15
2023-02-06T23:43:05.958Z,14.65
2023-02-06T23:45:33.913Z,15.65
2023-02-06T23:48:04.510Z,15.18
2023-02-06T23:50:31.979Z,15.20
2023-02-06T23:52:59.366Z,15.63
2023-02-06T23:55:28.289Z,16.83
2023-02-06T23:57:57.495Z,17.45
